createdAt,value
2023-04-15T00:02:00.758Z,100714.25
2023-04-15T00:04:29.329Z,100709.09
2023-04-15T00:06:57.438Z,100713.91
2023-04-15T00:09:25.565Z,100707.91
2023-04-15T00:11:55.014Z,100707.41
2023-04-15T00:14:23.059Z,100713.66
2023-04-15T00:16:56.298Z,100711.09
2023-04-15T00:19:25.399Z,100706.88
2023-04-15T00:21:53.448Z,100709.91
2023-04-15T00:24:21.672Z,100719.66
2023-04-15T00:26:50.067Z,100711.28
2023-04-15T00:29:19.602Z,100718.59
2023-04-15T00:31:48.078Z,100722.25
2023-04-15T00:34:16.732Z,100715.56
2023-04-15T00:36:44.859Z,100712.19
2023-04-15T00:39:12.912Z,100722.66
2023-04-15T00:41:40.931Z,100718.50
2023-04-15T00:44:09.402Z,100717.81
2023-04-15T00:46:40.236Z,100710.94
2023-04-15T00:49:08.720Z,100717.25
2023-04-15T00:51:37.254Z,100716.50
2023-04-15T00:54:05.988Z,100714.91
2023-04-15T00:56:38.057Z,100711.59
2023-04-15T00:59:07.820Z,100721.19
2023-04-15T01:01:37.186Z,100715.81
2023-04-15T01:04:07.038Z,100717.59
2023-04-15T01:06:35.190Z,100723.13
2023-04-15T01:09:03.633Z,100721.50
2023-04-15T01:11:34.366Z,100714.66
2023-04-15T01:14:02.906Z,100721.81
2023-04-15T01:16:31.176Z,100727.97
2023-04-15T01:18:59.553Z,100731.56
2023-04-15T01:21:30.012Z,100729.03
2023-04-15T01:23:58.798Z,100730.03
2023-04-15T01:26:28.546Z,100730.03
2023-04-15T01:28:56.638Z,100729.19
2023-04-15T01:31:24.697Z,100731.88
2023-04-15T01:33:53.193Z,100726.03
2023-04-15T01:36:21.222Z,100727.78
2023-04-15T01:38:49.702Z,100728.72
2023-04-15T01:41:20.146Z,100723.59
2023-04-15T01:43:49.628Z,100730.78
2023-04-15T01:46:17.770Z,100724.66
2023-04-15T01:48:48.585Z,100729.94
2023-04-15T01:51:16.741Z,100726.56
2023-04-15T01:53:44.930Z,100731.06
2023-04-15T01:58:41.361Z,100730.25
2023-04-15T02:01:11.959Z,100732.06
2023-04-15T02:03:40.137Z,100726.94
2023-04-15T02:06:08.248Z,100727.88
2023-04-15T02:08:36.260Z,100729.69
2023-04-15T02:11:04.375Z,100730.69
2023-04-15T02:13:32.401Z,100735.91
2023-04-15T02:16:00.642Z,100728.22
2023-04-15T02:18:30.085Z,100731.84
2023-04-15T02:20:58.879Z,100739.44
2023-04-15T02:23:27.154Z,100732.47
2023-04-15T02:25:55.227Z,100734.28
2023-04-15T02:28:23.312Z,100741.50
2023-04-15T02:30:53.687Z,100743.34
2023-04-15T02:33:22.904Z,100742.56
2023-04-15T02:35:53.804Z,100741.72
2023-04-15T02:38:21.852Z,100751.31
2023-04-15T02:40:51.141Z,100751.31
2023-04-15T02:43:19.123Z,100755.81
2023-04-15T02:45:48.584Z,100754.84
2023-04-15T02:48:19.058Z,100760.78
2023-04-15T02:50:48.027Z,100760.19
2023-04-15T02:53:20.812Z,100760.19
2023-04-15T02:55:48.959Z,100767.91
2023-04-15T02:58:17.170Z,100767.16
2023-04-15T03:00:47.986Z,100759.47
2023-04-15T03:03:16.533Z,100763.44
2023-04-15T03:05:45.822Z,100762.00
2023-04-15T03:08:15.023Z,100764.84
2023-04-15T03:10:44.632Z,100760.53
2023-04-15T03:13:12.711Z,100770.19
2023-04-15T03:15:40.780Z,100767.66
2023-04-15T03:18:09.070Z,100771.06
2023-04-15T03:20:37.339Z,100765.69
2023-04-15T03:23:05.637Z,100766.66
2023-04-15T03:25:33.707Z,100768.53
2023-04-15T03:28:03.174Z,100771.22
2023-04-15T03:30:31.170Z,100775.50
2023-04-15T03:32:59.495Z,100778.09
2023-04-15T03:35:27.537Z,100781.50
2023-04-15T03:37:55.682Z,100778.25
2023-04-15T03:40:23.790Z,100779.94
2023-04-15T03:42:51.761Z,100785.16
2023-04-15T03:45:23.430Z,100787.00
2023-04-15T03:47:51.678Z,100785.84
2023-04-15T03:50:22.034Z,100786.88
2023-04-15T03:52:51.134Z,100801.75
2023-04-15T03:55:19.925Z,100788.91
2023-04-15T03:57:48.083Z,100797.66
2023-04-15T04:00:16.823Z,100791.44
2023-04-15T04:02:46.446Z,100804.84
2023-04-15T04:05:14.588Z,100807.66
2023-04-15T04:07:42.666Z,100796.44
2023-04-15T04:10:11.306Z,100800.81
2023-04-15T04:12:42.119Z,100806.09
2023-04-15T04:15:12.896Z,100809.63
2023-04-15T04:17:41.093Z,100823.66
2023-04-15T04:20:11.356Z,100819.28
2023-04-15T04:22:41.954Z,100819.41
2023-04-15T04:25:11.277Z,100822.09
2023-04-15T04:27:39.375Z,100829.00
2023-04-15T04:30:09.015Z,100835.00
2023-04-15T04:32:37.247Z,100833.66
2023-04-15T04:35:05.994Z,100839.00
2023-04-15T04:37:35.515Z,100837.38
2023-04-15T04:40:03.802Z,100840.97
2023-04-15T04:42:31.882Z,100848.97
2023-04-15T04:44:59.955Z,100856.16
2023-04-15T04:47:28.226Z,100859.69
2023-04-15T04:49:56.335Z,100867.50
2023-04-15T04:52:24.473Z,100865.88
2023-04-15T04:54:54.024Z,100876.16
2023-04-15T04:57:22.078Z,100873.69
2023-04-15T04:59:50.006Z,100878.91
2023-04-15T05:02:20.817Z,100879.81
2023-04-15T05:04:50.205Z,100884.34
2023-04-15T05:07:18.236Z,100882.56
2023-04-15T05:09:46.458Z,100889.34
2023-04-15T05:12:15.962Z,100886.16
2023-04-15T05:14:44.112Z,100895.47
2023-04-15T05:17:12.561Z,100900.69
2023-04-15T05:19:40.730Z,100903.41
2023-04-15T05:22:09.188Z,100908.72
2023-04-15T05:24:37.286Z,100906.09
2023-04-15T05:27:05.533Z,100909.53
2023-04-15T05:29:34.972Z,100912.94
2023-04-15T05:32:03.103Z,100911.25
2023-04-15T05:34:31.141Z,100916.22
2023-04-15T05:36:59.266Z,100922.00
2023-04-15T05:39:27.762Z,100923.84
2023-04-15T05:41:55.887Z,100922.06
2023-04-15T05:44:23.887Z,100936.69
2023-04-15T05:46:53.404Z,100933.09
2023-04-15T05:49:21.596Z,100939.69
2023-04-15T05:51:49.793Z,100939.44
2023-04-15T05:54:20.234Z,100934.94
2023-04-15T05:56:48.601Z,100935.44
2023-04-15T05:59:16.839Z,100943.06
2023-04-15T06:01:45.274Z,100944.53
2023-04-15T06:04:15.514Z,100951.94
2023-04-15T06:06:43.769Z,100952.28
2023-04-15T06:09:11.889Z,100958.69
2023-04-15T06:11:41.383Z,100958.53
2023-04-15T06:14:09.508Z,100965.72
2023-04-15T06:16:37.750Z,100974.22
2023-04-15T06:19:06.096Z,100972.25
2023-04-15T06:21:35.701Z,100984.19
2023-04-15T06:24:04.013Z,100984.81
2023-04-15T06:26:32.378Z,100986.38
2023-04-15T06:29:00.847Z,100993.19
2023-04-15T06:31:29.211Z,101006.91
2023-04-15T06:33:57.466Z,100994.56
2023-04-15T06:36:25.637Z,100999.56
2023-04-15T06:38:55.082Z,101012.50
2023-04-15T06:41:23.103Z,101015.88
2023-04-15T06:43:51.467Z,101014.19
2023-04-15T06:46:19.693Z,101026.19
2023-04-15T06:48:48.272Z,101025.06
2023-04-15T06:51:16.419Z,101030.34
2023-04-15T06:53:44.433Z,101034.41
2023-04-15T06:56:13.890Z,101033.47
2023-04-15T06:58:42.002Z,101043.66
2023-04-15T07:01:10.117Z,101038.19
2023-04-15T07:03:38.206Z,101037.13
2023-04-15T07:06:06.953Z,101039.63
2023-04-15T07:08:35.077Z,101045.53
2023-04-15T07:11:03.266Z,101046.22
2023-04-15T07:13:33.751Z,101052.50
2023-04-15T07:16:01.982Z,101056.94
2023-04-15T07:18:30.097Z,101057.38
2023-04-15T07:20:58.425Z,101055.84
2023-04-15T07:23:26.771Z,101067.53
2023-04-15T07:25:54.891Z,101071.84
2023-04-15T07:28:23.045Z,101070.78
2023-04-15T07:30:57.113Z,101076.66
2023-04-15T07:33:25.533Z,101082.03
2023-04-15T07:35:53.768Z,101085.34
2023-04-15T07:38:21.897Z,101089.69
2023-04-15T07:40:50.142Z,101090.22
2023-04-15T07:43:18.975Z,101093.22
2023-04-15T07:45:47.121Z,101096.16
2023-04-15T07:48:16.878Z,101092.19
2023-04-15T07:50:48.180Z,101091.28
2023-04-15T07:53:16.270Z,101098.56
2023-04-15T07:55:44.317Z,101108.16
2023-04-15T07:58:12.370Z,101106.19
2023-04-15T08:00:40.969Z,101112.41
2023-04-15T08:03:09.133Z,101114.34
2023-04-15T08:05:38.750Z,101120.81
2023-04-15T08:08:07.187Z,101113.38
2023-04-15T08:10:35.433Z,101120.84
2023-04-15T08:13:03.625Z,101121.25
2023-04-15T08:15:32.959Z,101120.06
2023-04-15T08:18:01.447Z,101122.59
2023-04-15T08:20:30.036Z,101125.97
2023-04-15T08:22:59.526Z,101125.75
2023-04-15T08:25:27.768Z,101126.88
2023-04-15T08:27:57.234Z,101133.56
2023-04-15T08:30:25.341Z,101131.03
2023-04-15T08:32:53.448Z,101134.84
2023-04-15T08:35:21.561Z,101127.13
2023-04-15T08:37:51.160Z,101133.63
2023-04-15T08:40:21.873Z,101140.50
2023-04-15T08:42:53.904Z,101146.34
2023-04-15T08:45:23.032Z,101147.84
2023-04-15T08:47:57.554Z,101147.41
2023-04-15T08:50:27.905Z,101156.06
2023-04-15T08:52:56.927Z,101150.50
2023-04-15T08:55:27.944Z,101155.72
2023-04-15T08:57:56.128Z,101151.81
2023-04-15T09:00:24.685Z,101159.75
2023-04-15T09:02:53.659Z,101166.69
2023-04-15T09:05:23.138Z,101167.63
2023-04-15T09:07:54.377Z,101167.25
2023-04-15T09:10:22.430Z,101173.84
2023-04-15T09:12:51.985Z,101176.59
2023-04-15T09:15:20.376Z,101177.13
2023-04-15T09:17:48.833Z,101179.50
2023-04-15T09:20:18.766Z,101181.84
2023-04-15T09:22:49.826Z,101182.56
2023-04-15T09:25:28.128Z,101180.44
2023-04-15T09:27:59.222Z,101197.41
2023-04-15T09:30:28.529Z,101197.97
2023-04-15T09:32:58.709Z,101198.81
2023-04-15T09:35:28.642Z,101196.28
2023-04-15T09:38:04.894Z,101195.19
2023-04-15T09:40:37.335Z,101194.34
2023-04-15T09:43:07.845Z,101199.63
2023-04-15T09:45:37.342Z,101210.00
2023-04-15T09:48:19.257Z,101203.22
2023-04-15T09:50:48.991Z,101205.78
2023-04-15T09:53:19.458Z,101209.78
2023-04-15T09:55:51.268Z,101219.78
2023-04-15T09:58:21.469Z,101217.59
2023-04-15T10:00:50.628Z,101230.47
2023-04-15T10:03:22.827Z,101221.66
2023-04-15T10:05:52.965Z,101236.44
2023-04-15T10:08:23.976Z,101220.88
2023-04-15T10:10:53.153Z,101226.50
2023-04-15T10:13:24.346Z,101223.31
2023-04-15T10:15:58.636Z,101222.97
2023-04-15T10:18:29.967Z,101222.97
2023-04-15T10:20:58.194Z,101228.44
2023-04-15T10:23:27.448Z,101233.50
2023-04-15T10:25:56.259Z,101238.00
2023-04-15T10:28:26.528Z,101248.97
2023-04-15T10:30:54.804Z,101251.03
2023-04-15T10:33:25.126Z,101240.28
2023-04-15T10:35:55.665Z,101250.31
2023-04-15T10:38:36.912Z,101250.78
2023-04-15T10:41:17.818Z,101245.69
2023-04-15T10:43:50.568Z,101247.16
2023-04-15T10:46:21.034Z,101250.97
2023-04-15T10:48:51.517Z,101277.84
2023-04-15T10:51:29.341Z,101254.66
2023-04-15T10:54:00.956Z,101259.72
2023-04-15T10:56:31.245Z,101260.50
2023-04-15T10:59:02.635Z,101255.66
2023-04-15T11:01:54.310Z,101260.84
2023-04-15T11:04:52.692Z,101256.69
2023-04-15T11:07:41.408Z,101257.41
2023-04-15T11:10:53.129Z,101248.66
2023-04-15T11:13:28.373Z,101256.34
2023-04-15T11:16:02.737Z,101253.81
2023-04-15T11:18:32.899Z,101254.44
2023-04-15T11:21:03.563Z,101252.78
2023-04-15T11:23:36.782Z,101264.69
2023-04-15T11:26:09.305Z,101261.88
2023-04-15T11:28:39.203Z,101272.56
2023-04-15T11:31:11.469Z,101263.72
2023-04-15T11:33:47.033Z,101263.03
2023-04-15T11:36:18.201Z,101263.16
2023-04-15T11:38:52.720Z,101271.34
2023-04-15T11:41:23.232Z,101270.88
2023-04-15T11:43:51.851Z,101284.94
2023-04-15T11:46:22.761Z,101278.56
2023-04-15T11:48:51.037Z,101277.94
2023-04-15T11:51:20.926Z,101282.41
2023-04-15T11:53:52.498Z,101295.31
2023-04-15T11:56:21.495Z,101287.13
2023-04-15T11:58:52.929Z,101286.88
2023-04-15T12:01:32.861Z,101290.72
2023-04-15T12:04:02.491Z,101288.66
2023-04-15T12:06:35.108Z,101298.72
2023-04-15T12:09:09.446Z,101298.22
2023-04-15T12:11:48.458Z,101299.41
2023-04-15T12:14:23.848Z,101309.53
2023-04-15T12:16:55.117Z,101308.22
2023-04-15T12:19:32.786Z,101307.00
2023-04-15T12:22:02.727Z,101313.59
2023-04-15T12:24:33.869Z,101314.22
2023-04-15T12:27:04.394Z,101325.78
2023-04-15T12:29:34.269Z,101321.34
2023-04-15T12:32:08.767Z,101331.69
2023-04-15T12:34:39.188Z,101329.03
2023-04-15T12:37:10.180Z,101333.47
2023-04-15T12:39:39.817Z,101334.28
2023-04-15T12:42:09.157Z,101342.66
2023-04-15T12:44:38.027Z,101336.03
2023-04-15T12:47:09.338Z,101334.66
2023-04-15T12:49:37.833Z,101346.03
2023-04-15T12:52:06.573Z,101335.97
2023-04-15T12:54:36.057Z,101340.38
2023-04-15T12:57:06.810Z,101348.00
2023-04-15T12:59:35.646Z,101347.13
2023-04-15T13:02:08.174Z,101351.94
2023-04-15T13:04:36.472Z,101359.19
2023-04-15T13:07:04.560Z,101357.59
2023-04-15T13:09:33.543Z,101363.47
2023-04-15T13:12:02.298Z,101357.94
2023-04-15T13:14:30.646Z,101360.28
2023-04-15T13:16:59.000Z,101354.84
2023-04-15T13:19:28.489Z,101358.72
2023-04-15T13:21:57.067Z,101356.47
2023-04-15T13:24:25.730Z,101366.41
2023-04-15T13:26:54.173Z,101361.72
2023-04-15T13:29:22.338Z,101360.63
2023-04-15T13:31:50.623Z,101373.03
2023-04-15T13:34:18.712Z,101375.47
2023-04-15T13:36:48.361Z,101381.00
2023-04-15T13:39:16.504Z,101377.75
2023-04-15T13:41:44.690Z,101380.28
2023-04-15T13:44:12.751Z,101385.56
2023-04-15T13:46:41.965Z,101386.91
2023-04-15T13:49:10.057Z,101392.94
2023-04-15T13:51:41.865Z,101388.38
2023-04-15T13:54:11.359Z,101389.06
2023-04-15T13:56:40.088Z,101401.44
2023-04-15T13:59:08.802Z,101402.31
2023-04-15T14:01:37.065Z,101418.09
2023-04-15T14:04:05.453Z,101423.41
2023-04-15T14:06:33.854Z,101417.63
2023-04-15T14:09:02.079Z,101432.63
2023-04-15T14:11:31.620Z,101426.41
2023-04-15T14:14:02.731Z,101432.47
2023-04-15T14:16:31.049Z,101441.53
2023-04-15T14:18:59.821Z,101448.22
2023-04-15T14:21:30.108Z,101468.06
2023-04-15T14:23:58.232Z,101457.69
2023-04-15T14:26:26.727Z,101465.84
2023-04-15T14:28:56.185Z,101468.25
2023-04-15T14:31:24.394Z,101472.06
2023-04-15T14:33:52.614Z,101464.22
2023-04-15T14:36:20.710Z,101477.97
2023-04-15T14:38:48.858Z,101481.25
2023-04-15T14:41:17.327Z,101482.00
2023-04-15T14:43:45.435Z,101484.34
2023-04-15T14:46:15.492Z,101493.84
2023-04-15T14:48:44.159Z,101491.78
2023-04-15T14:51:12.292Z,101501.19
2023-04-15T14:53:40.604Z,101507.41
2023-04-15T14:56:09.059Z,101510.63
2023-04-15T14:58:37.127Z,101517.25
2023-04-15T15:01:06.014Z,101520.25
2023-04-15T15:03:36.311Z,101509.63
2023-04-15T15:06:04.713Z,101518.78
2023-04-15T15:08:36.882Z,101521.31
2023-04-15T15:11:05.141Z,101524.53
2023-04-15T15:13:33.185Z,101527.44
2023-04-15T15:16:01.627Z,101534.50
2023-04-15T15:18:29.751Z,101536.50
2023-04-15T15:21:01.506Z,101534.81
2023-04-15T15:23:29.672Z,101544.44
2023-04-15T15:25:58.706Z,101556.59
2023-04-15T15:28:26.872Z,101561.56
2023-04-15T15:30:55.036Z,101554.88
2023-04-15T15:33:23.530Z,101553.56
2023-04-15T15:35:52.132Z,101547.81
2023-04-15T15:38:21.617Z,101566.66
2023-04-15T15:40:49.732Z,101560.84
2023-04-15T15:43:17.896Z,101565.03
2023-04-15T15:45:45.988Z,101558.94
2023-04-15T15:48:16.316Z,101558.56
2023-04-15T15:50:46.579Z,101571.59
2023-04-15T15:53:18.027Z,101562.44
2023-04-15T15:55:47.830Z,101572.31
2023-04-15T15:58:16.251Z,101569.84
2023-04-15T16:00:46.728Z,101569.31
2023-04-15T16:03:15.052Z,101571.25
2023-04-15T16:05:43.163Z,101573.53
2023-04-15T16:08:11.265Z,101574.56
2023-04-15T16:10:39.497Z,101577.75
2023-04-15T16:13:09.172Z,101586.81
2023-04-15T16:15:39.892Z,101581.22
2023-04-15T16:18:08.039Z,101594.28
2023-04-15T16:20:36.202Z,101593.38
2023-04-15T16:23:13.127Z,101598.63
2023-04-15T16:25:43.460Z,101605.78
2023-04-15T16:28:25.744Z,101609.00
2023-04-15T16:30:55.072Z,101609.69
2023-04-15T16:33:23.118Z,101608.25
2023-04-15T16:35:52.431Z,101619.81
2023-04-15T16:38:20.864Z,101612.09
2023-04-15T16:40:49.213Z,101621.75
2023-04-15T16:43:20.971Z,101621.91
2023-04-15T16:45:51.419Z,101627.81
2023-04-15T16:48:20.326Z,101636.59
2023-04-15T16:50:49.047Z,101635.97
2023-04-15T16:53:17.434Z,101641.34
2023-04-15T16:55:45.729Z,101641.25
2023-04-15T16:58:13.808Z,101640.53
2023-04-15T17:00:43.357Z,101651.63
2023-04-15T17:03:11.695Z,101657.06
2023-04-15T17:05:39.947Z,101649.28
2023-04-15T17:08:08.492Z,101661.97
2023-04-15T17:10:37.479Z,101655.91
2023-04-15T17:13:05.505Z,101656.97
2023-04-15T17:15:33.585Z,101659.09
2023-04-15T17:18:03.162Z,101667.44
2023-04-15T17:20:31.409Z,101665.19
2023-04-15T17:23:02.248Z,101667.19
2023-04-15T17:25:30.923Z,101670.22
2023-04-15T17:27:59.016Z,101675.63
2023-04-15T17:30:27.164Z,101671.25
2023-04-15T17:32:55.439Z,101668.44
2023-04-15T17:35:26.232Z,101670.44
2023-04-15T17:37:54.311Z,101673.16
2023-04-15T17:40:22.570Z,101678.03
2023-04-15T17:42:53.568Z,101678.94
2023-04-15T17:45:21.648Z,101682.81
2023-04-15T17:47:49.755Z,101685.78
2023-04-15T17:50:17.870Z,101688.22
2023-04-15T17:52:48.419Z,101695.91
2023-04-15T17:55:16.754Z,101698.19
2023-04-15T17:57:47.509Z,101707.19
2023-04-15T18:00:15.966Z,101710.59
2023-04-15T18:02:44.213Z,101709.53
2023-04-15T18:05:12.614Z,101714.56
2023-04-15T18:07:43.357Z,101724.22
2023-04-15T18:10:13.222Z,101712.66
2023-04-15T18:12:41.281Z,101722.81
2023-04-15T18:15:14.576Z,101728.16
2023-04-15T18:17:42.750Z,101739.38
2023-04-15T18:20:11.720Z,101730.28
2023-04-15T18:22:39.757Z,101744.19
2023-04-15T18:25:08.781Z,101740.91
2023-04-15T18:27:39.426Z,101747.88
2023-04-15T18:30:08.879Z,101746.56
2023-04-15T18:32:37.071Z,101754.56
2023-04-15T18:35:06.441Z,101757.66
2023-04-15T18:37:34.718Z,101761.69
2023-04-15T18:40:02.803Z,101768.09
2023-04-15T18:42:30.923Z,101770.31
2023-04-15T18:45:00.391Z,101775.78
2023-04-15T18:47:28.734Z,101781.34
2023-04-15T18:49:58.526Z,101780.00
2023-04-15T18:52:26.702Z,101782.31
2023-04-15T18:54:54.835Z,101789.19
2023-04-15T18:57:23.463Z,101786.56
2023-04-15T19:00:00.443Z,101797.13
2023-04-15T19:02:28.702Z,101796.72
2023-04-15T19:04:56.896Z,101799.25
2023-04-15T19:07:25.043Z,101804.25
2023-04-15T19:09:53.963Z,101799.72
2023-04-15T19:12:22.032Z,101803.34
2023-04-15T19:14:50.506Z,101803.16
2023-04-15T19:17:19.994Z,101799.25
2023-04-15T19:19:48.090Z,101799.00
2023-04-15T19:22:16.802Z,101807.84
2023-04-15T19:24:44.933Z,101814.97
2023-04-15T19:27:13.134Z,101823.03
2023-04-15T19:29:41.403Z,101816.06
2023-04-15T19:32:09.835Z,101813.16
2023-04-15T19:34:39.291Z,101817.50
2023-04-15T19:37:07.378Z,101827.03
2023-04-15T19:39:35.760Z,101830.69
2023-04-15T19:42:04.030Z,101824.53
2023-04-15T19:44:32.194Z,101829.16
2023-04-15T19:47:00.496Z,101835.22
2023-04-15T19:49:28.660Z,101836.91
2023-04-15T19:51:58.107Z,101832.69
2023-04-15T19:54:26.507Z,101842.94
2023-04-15T19:56:54.677Z,101833.50
2023-04-15T19:59:22.903Z,101837.72
2023-04-15T20:01:51.118Z,101844.81
2023-04-15T20:04:19.394Z,101836.47
2023-04-15T20:06:47.565Z,101845.94
2023-04-15T20:09:17.090Z,101843.25
2023-04-15T20:12:46.124Z,101837.31
2023-04-15T20:14:33.300Z,101840.69
2023-04-15T20:17:01.502Z,101836.88
2023-04-15T20:19:29.548Z,101842.81
2023-04-15T20:21:57.643Z,101846.53
2023-04-15T20:24:27.190Z,101845.84
2023-04-15T20:26:55.265Z,101842.56
2023-04-15T20:29:23.328Z,101835.56
2023-04-15T20:31:51.471Z,101837.31
2023-04-15T20:34:19.519Z,101841.84
2023-04-15T20:36:47.684Z,101848.47
2023-04-15T20:39:16.212Z,101840.59
2023-04-15T20:41:45.941Z,101846.41
2023-04-15T20:44:14.032Z,101838.66
2023-04-15T20:46:42.222Z,101847.50
2023-04-15T20:49:12.736Z,101839.56
2023-04-15T20:51:40.991Z,101849.84
2023-04-15T20:54:09.144Z,101847.56
2023-04-15T20:56:37.165Z,101844.06
2023-04-15T20:59:07.013Z,101853.69
2023-04-15T21:01:37.837Z,101845.78
2023-04-15T21:04:06.251Z,101846.75
2023-04-15T21:06:35.041Z,101851.97
2023-04-15T21:09:03.465Z,101853.13
2023-04-15T21:11:53.246Z,101851.34
2023-04-15T21:14:22.334Z,101856.59
2023-04-15T21:16:53.110Z,101864.38
2023-04-15T21:19:21.237Z,101867.06
2023-04-15T21:21:49.306Z,101866.34
2023-04-15T21:24:17.390Z,101870.63
2023-04-15T21:26:48.848Z,101869.69
2023-04-15T21:29:17.172Z,101874.09
2023-04-15T21:31:46.760Z,101876.72
2023-04-15T21:34:14.826Z,101883.75
2023-04-15T21:36:43.008Z,101881.25
2023-04-15T21:39:14.254Z,101879.44
2023-04-15T21:41:42.394Z,101875.91
2023-04-15T21:44:12.056Z,101881.88
2023-04-15T21:46:46.060Z,101886.94
2023-04-15T21:49:16.070Z,101885.13
2023-04-15T21:51:45.643Z,101888.66
2023-04-15T21:54:13.831Z,101890.59
2023-04-15T21:56:42.408Z,101902.91
2023-04-15T21:59:10.497Z,101896.84
2023-04-15T22:01:38.659Z,101899.47
2023-04-15T22:04:07.540Z,101903.09
2023-04-15T22:06:37.206Z,101905.44
2023-04-15T22:09:05.346Z,101907.94
2023-04-15T22:11:33.442Z,101906.66
2023-04-15T22:14:01.541Z,101918.88
2023-04-15T22:16:29.923Z,101912.47
2023-04-15T22:18:58.062Z,101912.28
2023-04-15T22:21:28.680Z,101916.78
2023-04-15T22:24:38.750Z,101913.50
2023-04-15T22:27:03.669Z,101909.78
2023-04-15T22:29:31.697Z,101918.38
2023-04-15T22:31:59.758Z,101913.25
2023-04-15T22:34:27.962Z,101919.50
2023-04-15T22:36:56.055Z,101915.19
2023-04-15T22:39:25.627Z,101916.13
2023-04-15T22:41:53.798Z,101924.63
2023-04-15T22:44:21.956Z,101923.22
2023-04-15T22:46:51.888Z,101929.47
2023-04-15T22:49:19.984Z,101922.38
2023-04-15T22:51:48.071Z,101929.22
2023-04-15T22:54:16.362Z,101926.66
2023-04-15T22:56:45.827Z,101933.44
2023-04-15T22:59:13.976Z,101922.94
2023-04-15T23:01:42.145Z,101936.13
2023-04-15T23:04:26.216Z,101937.97
2023-04-15T23:06:55.841Z,101933.56
2023-04-15T23:09:24.020Z,101941.13
2023-04-15T23:11:53.481Z,101934.81
2023-04-15T23:14:21.542Z,101941.38
2023-04-15T23:16:49.659Z,101940.66
2023-04-15T23:19:17.750Z,101942.50
2023-04-15T23:21:45.989Z,101946.84
2023-04-15T23:24:14.068Z,101947.69
2023-04-15T23:26:42.194Z,101952.84
2023-04-15T23:29:12.036Z,101957.00
2023-04-15T23:31:41.641Z,101951.75
2023-04-15T23:34:12.681Z,101958.75
2023-04-15T23:36:40.831Z,101954.25
2023-04-15T23:39:09.226Z,101953.56
2023-04-15T23:41:37.771Z,101956.13
2023-04-15T23:44:06.368Z,101953.88
2023-04-15T23:46:36.070Z,101956.69
2023-04-15T23:49:07.461Z,101954.63
2023-04-15T23:51:35.930Z,101955.41
2023-04-15T23:54:04.152Z,101957.09
2023-04-15T23:56:32.519Z,101961.72
2023-04-15T23:59:00.658Z,101966.94
